createdAt,value
2019-03-27T00:03:08.413Z,23.4
2019-03-27T00:08:31.784Z,18.9
2019-03-27T00:13:54.508Z,16.799999
2019-03-27T00:19:18.653Z,20.6
2019-03-27T00:24:41.306Z,20.299999
2019-03-27T00:30:03.964Z,19.1
2019-03-27T00:35:27.092Z,22.799999
2019-03-27T00:40:50.669Z,22.700001
2019-03-27T00:46:13.324Z,21.799999
2019-03-27T00:51:36.111Z,23.299999
2019-03-27T00:56:58.747Z,24.6
2019-03-27T01:02:22.426Z,23
2019-03-27T01:07:45.078Z,28.6
2019-03-27T01:13:07.821Z,25
2019-03-27T01:18:30.575Z,25.1
2019-03-27T01:23:53.375Z,28
2019-03-27T01:29:17.408Z,26.299999
2019-03-27T01:34:40.143Z,37.099998
2019-03-27T01:40:02.839Z,29.1
2019-03-27T01:45:26.283Z,29.700001
2019-03-27T01:50:49.953Z,28.799999
2019-03-27T01:56:12.684Z,35.599998
2019-03-27T02:01:35.345Z,32.700001
2019-03-27T02:06:58.055Z,31.1
2019-03-27T02:12:20.730Z,30
2019-03-27T02:17:43.421Z,31
2019-03-27T02:23:07.259Z,31.200001
2019-03-27T02:28:29.911Z,25.1
2019-03-27T02:33:52.704Z,30.1
2019-03-27T02:39:15.513Z,31
2019-03-27T02:44:38.168Z,32
2019-03-27T02:50:01.105Z,34.099998
2019-03-27T02:55:23.869Z,30.4
2019-03-27T03:00:46.953Z,33.099998
2019-03-27T03:06:09.682Z,38.599998
2019-03-27T03:11:32.389Z,26.700001
2019-03-27T03:16:55.184Z,37
2019-03-27T03:22:19.819Z,35.900002
2019-03-27T03:27:42.612Z,34.200001
2019-03-27T03:33:05.336Z,31.1
2019-03-27T03:38:28.964Z,35.799999
2019-03-27T03:43:53.138Z,37.200001
2019-03-27T03:49:15.811Z,32
2019-03-27T03:54:39.189Z,32.200001
2019-03-27T04:00:01.891Z,30
2019-03-27T04:05:24.979Z,30.5
2019-03-27T04:10:48.302Z,31.799999
2019-03-27T04:16:11.079Z,26.5
2019-03-27T04:21:34.848Z,25.799999
2019-03-27T04:26:57.506Z,27.4
2019-03-27T04:32:20.545Z,30.700001
2019-03-27T04:37:44.563Z,28.200001
2019-03-27T04:43:07.638Z,27.299999
2019-03-27T04:48:30.374Z,29.9
2019-03-27T04:53:53.065Z,31.700001
2019-03-27T04:59:16.045Z,34.900002
2019-03-27T05:04:39.031Z,29.6
2019-03-27T05:10:01.769Z,36.700001
2019-03-27T05:15:24.783Z,36.400002
2019-03-27T05:20:47.525Z,30.799999
2019-03-27T05:26:10.300Z,29.6
2019-03-27T05:31:32.967Z,32.900002
2019-03-27T05:36:55.729Z,29.4
2019-03-27T05:42:18.618Z,29.700001
2019-03-27T05:47:41.333Z,25.9
2019-03-27T05:53:04.078Z,25.6
2019-03-27T05:58:26.767Z,26.1
2019-03-27T06:03:49.486Z,25.5
2019-03-27T06:09:12.283Z,22.6
2019-03-27T06:14:35.002Z,25.9
2019-03-27T06:19:58.628Z,22.1
2019-03-27T06:25:21.423Z,26.1
2019-03-27T06:30:44.097Z,21.299999
2019-03-27T06:36:06.769Z,25.4
2019-03-27T06:41:29.442Z,26.4
2019-03-27T06:46:52.164Z,25.6
2019-03-27T06:52:14.909Z,23.299999
2019-03-27T06:57:37.724Z,23.1
2019-03-27T07:03:00.416Z,21.700001
2019-03-27T07:08:23.107Z,20.4
2019-03-27T07:13:45.826Z,21.1
2019-03-27T07:19:08.546Z,23.799999
2019-03-27T07:24:31.233Z,20.799999
2019-03-27T07:29:53.989Z,22
2019-03-27T07:35:16.817Z,22.200001
2019-03-27T07:40:39.680Z,21.700001
2019-03-27T07:46:02.318Z,23.9
2019-03-27T07:51:25.034Z,23.799999
2019-03-27T07:56:47.722Z,23
2019-03-27T08:02:10.394Z,18.6
2019-03-27T08:07:33.066Z,17.200001
2019-03-27T08:12:55.847Z,20.299999
2019-03-27T08:18:18.471Z,16.4
2019-03-27T08:23:41.115Z,16.6
2019-03-27T08:29:03.786Z,15.8
2019-03-27T08:34:26.437Z,14.1
2019-03-27T08:39:49.181Z,15.1
2019-03-27T08:45:11.792Z,15.6
2019-03-27T08:50:34.474Z,11.4
2019-03-27T08:55:57.149Z,11.6
2019-03-27T09:01:19.844Z,14.7
2019-03-27T09:06:42.631Z,12.2
2019-03-27T09:12:05.310Z,14.8
2019-03-27T09:17:28.186Z,16
2019-03-27T09:22:52.165Z,13.5
2019-03-27T09:28:14.805Z,13.7
2019-03-27T09:33:37.495Z,10.2
2019-03-27T09:39:00.180Z,14.5
2019-03-27T09:44:22.874Z,11.4
2019-03-27T09:49:49.660Z,13.8
2019-03-27T09:55:09.503Z,10.6
2019-03-27T10:00:32.114Z,7.6
2019-03-27T10:05:54.776Z,10.3
2019-03-27T10:11:17.477Z,10.5
2019-03-27T10:16:40.157Z,9.2
2019-03-27T10:22:02.846Z,9.7
2019-03-27T10:27:25.526Z,9
2019-03-27T10:32:48.220Z,8.7
2019-03-27T10:38:10.915Z,6.1
2019-03-27T10:43:33.695Z,6.3
2019-03-27T10:48:56.405Z,8.5
2019-03-27T10:54:19.096Z,5.6
2019-03-27T10:59:41.744Z,7
2019-03-27T11:05:04.413Z,6.9
2019-03-27T11:10:27.078Z,4.5
2019-03-27T11:15:49.841Z,5.6
2019-03-27T11:21:12.694Z,4.6
2019-03-27T11:26:35.265Z,4.2
2019-03-27T11:31:58.211Z,6.9
2019-03-27T11:37:20.858Z,6.4
2019-03-27T11:42:43.517Z,6.1
2019-03-27T11:48:08.142Z,3
2019-03-27T11:53:28.919Z,4.9
2019-03-27T11:58:51.691Z,4.3
2019-03-27T12:04:14.466Z,4.3
2019-03-27T12:09:37.242Z,4
2019-03-27T12:14:59.897Z,5.1
2019-03-27T12:20:26.354Z,4
2019-03-27T12:25:49.083Z,6.4
2019-03-27T12:31:12.747Z,6.7
2019-03-27T12:36:35.389Z,6.1
2019-03-27T12:41:58.079Z,6.7
2019-03-27T12:47:21.001Z,7.6
2019-03-27T12:52:43.694Z,8.5
2019-03-27T12:58:06.342Z,5.8
2019-03-27T13:03:29.974Z,9.3
2019-03-27T13:08:52.610Z,6.8
2019-03-27T13:14:15.376Z,5.8
2019-03-27T13:19:38.133Z,7.1
2019-03-27T13:25:00.835Z,5.5
2019-03-27T13:30:23.587Z,5.7
2019-03-27T13:35:46.265Z,7.8
2019-03-27T13:41:08.927Z,7.6
2019-03-27T13:46:31.655Z,6.6
2019-03-27T13:51:54.325Z,6.1
2019-03-27T13:57:17.039Z,7.2
2019-03-27T14:02:39.691Z,6.6
2019-03-27T14:08:03.260Z,5.9
2019-03-27T14:13:26.011Z,6.7
2019-03-27T14:18:49.138Z,5.8
2019-03-27T14:24:11.493Z,6
2019-03-27T14:29:34.189Z,5.8
2019-03-27T14:34:56.883Z,5
2019-03-27T14:40:19.617Z,4.5
2019-03-27T14:45:42.327Z,4.6
2019-03-27T14:51:04.961Z,5
2019-03-27T14:56:28.146Z,4.8
2019-03-27T15:01:50.942Z,4.3
2019-03-27T15:07:14.610Z,4.2
2019-03-27T15:12:37.267Z,4.9
2019-03-27T15:17:59.977Z,6
2019-03-27T15:23:22.837Z,5.7
2019-03-27T15:28:45.555Z,5.4
2019-03-27T15:34:09.221Z,5.4
2019-03-27T15:39:31.855Z,6.5
2019-03-27T15:44:54.762Z,4
2019-03-27T15:50:17.466Z,8.1
2019-03-27T15:55:41.148Z,5.9
2019-03-27T16:01:04.023Z,6.4
2019-03-27T16:06:26.794Z,6.9
2019-03-27T16:11:50.112Z,5.8
2019-03-27T16:17:13.923Z,5.7
2019-03-27T16:22:49.467Z,4.4
2019-03-27T16:28:00.209Z,4.4
2019-03-27T16:33:22.874Z,5.7
2019-03-27T16:38:45.522Z,5.7
2019-03-27T16:44:08.291Z,7.9
2019-03-27T16:49:30.995Z,4.9
2019-03-27T16:54:53.681Z,5.8
2019-03-27T17:00:16.366Z,6.3
2019-03-27T17:05:52.932Z,7
2019-03-27T17:11:02.717Z,4.6
2019-03-27T17:16:25.382Z,5.7
2019-03-27T17:21:48.011Z,8
2019-03-27T17:27:10.853Z,8.1
2019-03-27T17:32:33.605Z,4.8
2019-03-27T17:37:56.380Z,7.3
2019-03-27T17:43:19.060Z,5.4
2019-03-27T17:48:41.718Z,6.6
2019-03-27T17:54:04.464Z,7
2019-03-27T17:59:28.292Z,6.8
2019-03-27T18:04:51.043Z,8.1
2019-03-27T18:10:13.820Z,6.7
2019-03-27T18:15:36.624Z,9.5
2019-03-27T18:20:59.252Z,8.1
2019-03-27T18:26:21.970Z,8.7
2019-03-27T18:31:44.652Z,6.8
2019-03-27T18:37:07.717Z,6.6
2019-03-27T18:42:31.948Z,9
2019-03-27T18:47:54.871Z,7.9
2019-03-27T18:53:17.481Z,10.2
2019-03-27T18:58:40.279Z,8.4
2019-03-27T19:04:03.117Z,8.6
2019-03-27T19:09:26.143Z,9.1
2019-03-27T19:14:48.834Z,8.1
2019-03-27T19:20:11.789Z,11.4
2019-03-27T19:25:34.459Z,10.7
2019-03-27T19:30:57.288Z,9.1
2019-03-27T19:36:19.915Z,9.5
2019-03-27T19:41:42.685Z,7.7
2019-03-27T19:47:06.375Z,12.1
2019-03-27T19:52:29.508Z,10.2
2019-03-27T19:57:52.420Z,11.7
2019-03-27T20:03:15.254Z,9.9
2019-03-27T20:08:38.683Z,8.9
2019-03-27T20:14:01.521Z,9.7
2019-03-27T20:19:24.291Z,11.5
2019-03-27T20:24:48.615Z,12.3
2019-03-27T20:30:11.436Z,12.1
2019-03-27T20:35:34.150Z,13.4
2019-03-27T20:40:56.861Z,11.3
2019-03-27T20:46:25.344Z,11.3
2019-03-27T20:51:43.299Z,10.7
2019-03-27T20:57:06.104Z,13.7
2019-03-27T21:02:28.870Z,10.5
2019-03-27T21:07:51.691Z,9.2
2019-03-27T21:13:14.741Z,8.7
2019-03-27T21:18:37.434Z,8.6
2019-03-27T21:24:01.265Z,10.1
2019-03-27T21:29:24.409Z,10.6
2019-03-27T21:34:48.347Z,9.6
2019-03-27T21:40:11.115Z,8.4
2019-03-27T21:45:33.823Z,11.3
2019-03-27T21:50:56.583Z,11
2019-03-27T21:56:20.126Z,11.1
2019-03-27T22:01:42.868Z,10.9
2019-03-27T22:07:05.670Z,9.6
2019-03-27T22:12:29.291Z,8.6
2019-03-27T22:17:52.733Z,9.6
2019-03-27T22:23:15.454Z,9.6
2019-03-27T22:28:38.168Z,10.6
2019-03-27T22:34:00.959Z,10.8
2019-03-27T22:39:23.733Z,10.1
2019-03-27T22:44:46.407Z,8.6
2019-03-27T22:50:09.162Z,9.9
2019-03-27T22:55:31.912Z,10.8
2019-03-27T23:00:54.733Z,9.8
2019-03-27T23:06:17.423Z,12
2019-03-27T23:11:40.178Z,11
2019-03-27T23:17:03.026Z,10.4
2019-03-27T23:22:25.719Z,9.1
2019-03-27T23:27:48.556Z,10
2019-03-27T23:33:11.297Z,11.8
2019-03-27T23:38:34.025Z,10.1
2019-03-27T23:43:56.736Z,11.5
2019-03-27T23:49:19.617Z,11.1
2019-03-27T23:54:42.359Z,11.7
